createdAt,value
2018-03-01T00:00:11.074Z,33.50
2018-03-01T00:02:39.465Z,33.30
2018-03-01T00:05:07.878Z,33.40
2018-03-01T00:07:36.134Z,33.30
2018-03-01T00:10:04.437Z,33.30
2018-03-01T00:12:32.755Z,33.40
2018-03-01T00:15:00.978Z,33.70
2018-03-01T00:17:29.254Z,33.50
2018-03-01T00:19:57.510Z,33.40
2018-03-01T00:22:38.554Z,33.30
2018-03-01T00:25:06.814Z,33.20
2018-03-01T00:27:35.096Z,33.40
2018-03-01T00:30:04.370Z,33.40
2018-03-01T00:32:32.636Z,33.50
2018-03-01T00:35:01.401Z,33.60
2018-03-01T00:37:29.686Z,33.40
2018-03-01T00:39:58.058Z,33.10
2018-03-01T00:42:26.573Z,33.20
2018-03-01T00:44:54.859Z,33.20
2018-03-01T00:47:23.158Z,33.20
2018-03-01T00:49:51.544Z,33.30
2018-03-01T00:52:20.549Z,33.20
2018-03-01T00:54:48.850Z,33.10
2018-03-01T00:57:17.194Z,33.20
2018-03-01T00:59:46.383Z,33.40
2018-03-01T01:02:14.630Z,33.30
2018-03-01T01:04:42.936Z,33.20
2018-03-01T01:07:11.213Z,33.20
2018-03-01T01:09:39.854Z,32.90
2018-03-01T01:12:08.095Z,32.80
2018-03-01T01:14:37.205Z,33.10
2018-03-01T01:17:06.418Z,33.00
2018-03-01T01:19:34.759Z,32.90
2018-03-01T01:22:03.338Z,33.00
2018-03-01T01:24:31.724Z,33.00
2018-03-01T01:27:00.007Z,32.80
2018-03-01T01:29:29.075Z,33.10
2018-03-01T01:31:57.384Z,32.90
2018-03-01T01:34:26.483Z,33.10
2018-03-01T01:36:54.778Z,33.10
2018-03-01T01:39:23.053Z,33.00
2018-03-01T01:41:51.314Z,32.90
2018-03-01T01:44:19.649Z,32.90
2018-03-01T01:46:47.895Z,32.90
2018-03-01T01:49:16.143Z,33.20
2018-03-01T01:51:44.393Z,33.60
2018-03-01T01:54:12.677Z,32.70
2018-03-01T01:56:41.046Z,32.70
2018-03-01T01:59:10.152Z,32.70
2018-03-01T02:01:38.408Z,33.50
2018-03-01T02:04:07.106Z,32.70
2018-03-01T02:06:35.525Z,33.00
2018-03-01T02:09:05.509Z,33.00
2018-03-01T02:11:33.772Z,32.70
2018-03-01T02:14:02.049Z,32.70
2018-03-01T02:16:30.299Z,32.70
2018-03-01T02:18:58.566Z,32.90
2018-03-01T02:21:26.915Z,32.90
2018-03-01T02:23:55.454Z,32.80
2018-03-01T02:26:23.696Z,32.80
2018-03-01T02:28:52.029Z,33.10
2018-03-01T02:31:21.115Z,33.20
2018-03-01T02:33:50.254Z,32.90
2018-03-01T02:36:30.528Z,32.80
2018-03-01T02:38:59.689Z,32.80
2018-03-01T02:41:27.981Z,32.70
2018-03-01T02:43:56.277Z,32.90
2018-03-01T02:46:24.525Z,32.80
2018-03-01T02:48:52.871Z,32.90
2018-03-01T02:51:21.158Z,33.10
2018-03-01T02:53:49.525Z,32.80
2018-03-01T02:56:18.534Z,32.70
2018-03-01T02:58:46.872Z,32.70
2018-03-01T03:01:15.221Z,32.70
2018-03-01T03:03:43.460Z,32.60
2018-03-01T03:06:12.479Z,32.80
2018-03-01T03:08:40.850Z,32.70
2018-03-01T03:11:09.094Z,33.10
2018-03-01T03:13:38.197Z,32.90
2018-03-01T03:16:07.338Z,32.80
2018-03-01T03:18:35.605Z,32.70
2018-03-01T03:21:03.847Z,32.80
2018-03-01T03:23:32.905Z,33.10
2018-03-01T03:26:01.239Z,32.70
2018-03-01T03:28:29.461Z,32.90
2018-03-01T03:30:58.511Z,33.10
2018-03-01T03:33:26.871Z,33.00
2018-03-01T03:35:55.378Z,32.90
2018-03-01T03:38:23.650Z,33.00
2018-03-01T03:40:51.923Z,32.70
2018-03-01T03:43:20.164Z,32.50
2018-03-01T03:45:48.546Z,32.90
2018-03-01T03:48:16.786Z,33.10
2018-03-01T03:50:45.069Z,32.90
2018-03-01T03:53:13.329Z,32.90
2018-03-01T03:55:41.578Z,32.90
2018-03-01T03:58:09.826Z,32.80
2018-03-01T04:00:38.970Z,32.90
2018-03-01T04:03:07.247Z,33.20
2018-03-01T04:05:35.512Z,33.30
2018-03-01T04:08:03.748Z,32.90
2018-03-01T04:10:33.149Z,32.90
2018-03-01T04:13:01.365Z,33.10
2018-03-01T04:15:29.637Z,32.90
2018-03-01T04:17:57.886Z,33.10
2018-03-01T04:20:27.009Z,33.00
2018-03-01T04:22:55.313Z,32.90
2018-03-01T04:25:23.549Z,33.60
2018-03-01T04:27:51.798Z,33.30
2018-03-01T04:30:20.129Z,33.30
2018-03-01T04:32:48.438Z,33.00
2018-03-01T04:35:16.679Z,33.30
2018-03-01T04:37:44.934Z,33.20
2018-03-01T04:40:13.973Z,33.20
2018-03-01T04:42:42.326Z,33.20
2018-03-01T04:45:11.051Z,33.10
2018-03-01T04:47:39.365Z,33.00
2018-03-01T04:50:07.757Z,33.00
2018-03-01T04:52:36.001Z,33.10
2018-03-01T04:55:04.302Z,33.00
2018-03-01T04:57:32.580Z,32.90
2018-03-01T05:00:00.837Z,32.80
2018-03-01T05:02:29.964Z,33.10
2018-03-01T05:04:58.200Z,32.90
2018-03-01T05:07:26.487Z,32.90
2018-03-01T05:09:54.748Z,32.80
2018-03-01T05:12:23.782Z,32.90
2018-03-01T05:14:52.061Z,32.90
2018-03-01T05:17:20.337Z,32.90
2018-03-01T05:19:48.638Z,32.70
2018-03-01T05:22:17.718Z,32.90
2018-03-01T05:24:45.953Z,33.00
2018-03-01T05:27:15.069Z,32.90
2018-03-01T05:29:43.330Z,32.70
2018-03-01T05:32:12.514Z,32.90
2018-03-01T05:34:41.685Z,32.80
2018-03-01T05:37:09.997Z,32.70
2018-03-01T05:39:39.020Z,33.00
2018-03-01T05:42:11.692Z,32.70
2018-03-01T05:44:40.770Z,33.20
2018-03-01T05:47:09.880Z,32.80
2018-03-01T05:49:38.893Z,33.20
2018-03-01T05:52:07.902Z,33.20
2018-03-01T05:54:36.195Z,33.10
2018-03-01T05:57:04.502Z,33.00
2018-03-01T05:59:32.733Z,32.90
2018-03-01T06:02:00.995Z,33.10
2018-03-01T06:04:30.886Z,32.90
2018-03-01T06:06:59.233Z,32.90
2018-03-01T06:09:27.456Z,33.00
2018-03-01T06:11:55.721Z,33.10
2018-03-01T06:14:24.226Z,33.10
2018-03-01T06:16:52.545Z,33.20
2018-03-01T06:19:20.770Z,33.00
2018-03-01T06:21:50.679Z,33.20
2018-03-01T06:24:18.957Z,33.20
2018-03-01T06:26:47.214Z,33.30
2018-03-01T06:29:15.509Z,33.30
2018-03-01T06:31:43.989Z,33.10
2018-03-01T06:34:12.957Z,33.20
2018-03-01T06:36:41.333Z,32.80
2018-03-01T06:39:10.358Z,33.10
2018-03-01T06:41:38.655Z,32.90
2018-03-01T06:44:07.080Z,33.10
2018-03-01T06:46:35.342Z,33.40
2018-03-01T06:49:07.433Z,33.10
2018-03-01T06:51:35.663Z,33.30
2018-03-01T06:54:03.918Z,33.40
2018-03-01T06:56:32.224Z,33.30
2018-03-01T06:59:00.538Z,33.10
2018-03-01T07:01:28.849Z,33.20
2018-03-01T07:03:57.177Z,33.40
2018-03-01T07:06:25.595Z,33.10
2018-03-01T07:08:53.924Z,33.40
2018-03-01T07:11:22.170Z,33.50
2018-03-01T07:13:50.411Z,33.50
2018-03-01T07:16:18.676Z,33.30
2018-03-01T07:18:47.957Z,33.40
2018-03-01T07:21:16.216Z,33.30
2018-03-01T07:23:44.764Z,33.20
2018-03-01T07:26:13.010Z,33.30
2018-03-01T07:28:41.280Z,33.40
2018-03-01T07:31:10.389Z,33.30
2018-03-01T07:33:39.514Z,33.10
2018-03-01T08:58:05.653Z,33.10
2018-03-01T09:00:34.875Z,34.70
2018-03-01T09:03:03.125Z,35.30
2018-03-01T09:05:31.481Z,35.20
2018-03-01T09:07:59.822Z,34.90
2018-03-01T09:10:28.097Z,34.40
2018-03-01T09:12:56.511Z,34.40
2018-03-01T09:15:24.737Z,34.00
2018-03-01T09:17:52.980Z,33.80
2018-03-01T09:20:21.299Z,33.40
2018-03-01T09:22:49.656Z,32.60
2018-03-01T09:25:17.998Z,32.80
2018-03-01T09:27:47.144Z,32.60
2018-03-01T09:30:15.382Z,32.70
2018-03-01T09:32:43.654Z,32.50
2018-03-01T09:35:13.674Z,32.10
2018-03-01T09:37:42.039Z,32.10
2018-03-01T09:40:11.031Z,32.10
2018-03-01T09:42:40.237Z,31.60
2018-03-01T09:45:09.394Z,31.20
2018-03-01T09:47:37.705Z,31.20
2018-03-01T09:50:05.957Z,30.90
2018-03-01T09:52:34.209Z,30.30
2018-03-01T09:55:02.465Z,30.00
2018-03-01T09:57:30.850Z,30.30
2018-03-01T09:59:59.398Z,30.30
2018-03-01T10:02:27.614Z,30.20
2018-03-01T10:04:55.867Z,30.00
2018-03-01T10:07:24.146Z,30.60
2018-03-01T10:09:53.236Z,29.80
2018-03-01T10:12:22.328Z,29.80
2018-03-01T10:14:51.412Z,30.00
2018-03-01T10:17:20.555Z,29.70
2018-03-01T10:19:48.799Z,29.80
2018-03-01T10:22:17.318Z,29.80
2018-03-01T10:24:46.307Z,29.80
2018-03-01T10:27:14.575Z,29.80
2018-03-01T10:29:47.001Z,29.40
2018-03-01T10:32:15.277Z,29.50
2018-03-01T10:34:45.892Z,29.50
2018-03-01T10:37:15.025Z,28.90
2018-03-01T10:39:43.420Z,29.30
2018-03-01T10:42:11.681Z,29.20
2018-03-01T10:44:40.804Z,28.90
2018-03-01T10:47:09.065Z,28.70
2018-03-01T10:49:37.345Z,28.90
2018-03-01T10:52:05.610Z,28.70
2018-03-01T10:54:34.067Z,28.60
2018-03-01T10:57:02.374Z,28.50
2018-03-01T10:59:30.678Z,28.30
2018-03-01T11:02:00.678Z,28.40
2018-03-01T11:04:29.015Z,28.20
2018-03-01T11:06:57.286Z,28.10
2018-03-01T11:09:26.705Z,28.20
2018-03-01T11:11:54.960Z,28.10
2018-03-01T11:14:24.066Z,28.20
2018-03-01T11:16:52.270Z,28.10
2018-03-01T11:19:20.634Z,28.10
2018-03-01T11:21:48.869Z,28.00
2018-03-01T11:24:17.310Z,27.90
2018-03-01T11:26:45.563Z,27.40
2018-03-01T11:29:14.681Z,28.10
2018-03-01T11:31:42.978Z,28.10
2018-03-01T11:34:11.243Z,28.20
2018-03-01T11:36:39.504Z,27.60
2018-03-01T11:39:07.730Z,27.60
2018-03-01T11:41:36.267Z,27.30
2018-03-01T11:44:04.978Z,27.40
2018-03-01T11:46:33.362Z,27.40
2018-03-01T11:49:01.598Z,27.60
2018-03-01T11:51:29.866Z,27.60
2018-03-01T11:53:58.106Z,26.90
2018-03-01T11:56:26.408Z,27.10
2018-03-01T11:58:54.640Z,27.00
2018-03-01T12:01:22.898Z,27.40
2018-03-01T12:03:51.194Z,27.00
2018-03-01T12:06:20.067Z,26.80
2018-03-01T12:08:48.305Z,27.00
2018-03-01T12:11:17.315Z,26.70
2018-03-01T12:13:45.671Z,26.70
2018-03-01T12:16:14.701Z,26.60
2018-03-01T12:18:42.922Z,26.50
2018-03-01T12:21:11.174Z,26.60
2018-03-01T12:23:39.431Z,26.70
2018-03-01T12:26:08.525Z,26.60
2018-03-01T12:28:36.855Z,27.10
2018-03-01T12:31:05.090Z,26.50
2018-03-01T12:33:33.408Z,26.30
2018-03-01T12:36:01.644Z,26.30
2018-03-01T12:38:30.021Z,26.30
2018-03-01T12:40:58.348Z,26.50
2018-03-01T12:43:26.593Z,26.40
2018-03-01T12:45:54.818Z,26.40
2018-03-01T12:48:23.071Z,26.40
2018-03-01T12:50:51.321Z,26.00
2018-03-01T12:53:19.777Z,26.10
2018-03-01T12:55:48.826Z,26.00
2018-03-01T12:58:17.866Z,26.00
2018-03-01T13:00:46.138Z,26.10
2018-03-01T13:03:14.549Z,26.30
2018-03-01T13:05:42.896Z,26.10
2018-03-01T13:08:11.264Z,26.30
2018-03-01T13:10:39.532Z,25.90
2018-03-01T13:13:07.934Z,26.20
2018-03-01T13:15:36.383Z,26.20
2018-03-01T13:18:05.461Z,26.00
2018-03-01T13:20:34.494Z,26.10
2018-03-01T13:23:02.883Z,26.50
2018-03-01T13:25:31.382Z,25.70
2018-03-01T13:28:00.486Z,25.80
2018-03-01T13:30:45.163Z,25.80
2018-03-01T13:33:16.102Z,25.60
2018-03-01T13:35:44.315Z,25.60
2018-03-01T13:38:13.207Z,25.40
2018-03-01T13:40:41.553Z,25.80
2018-03-01T13:43:11.213Z,25.40
2018-03-01T13:45:50.193Z,25.60
2018-03-01T13:48:18.764Z,25.70
2018-03-01T13:50:47.107Z,25.40
2018-03-01T13:53:15.437Z,25.60
2018-03-01T13:55:43.709Z,25.50
2018-03-01T13:58:12.040Z,25.60
2018-03-01T14:00:40.290Z,25.30
2018-03-01T14:03:08.557Z,25.40
2018-03-01T14:05:36.785Z,25.50
2018-03-01T14:08:06.035Z,25.20
2018-03-01T14:10:34.411Z,25.30
2018-03-01T14:13:08.399Z,25.20
2018-03-01T14:15:37.533Z,25.30
2018-03-01T14:21:20.013Z,25.10
2018-03-01T14:23:48.256Z,25.20
2018-03-01T14:29:23.161Z,24.90
2018-03-01T14:31:52.299Z,25.20
2018-03-01T14:34:20.506Z,25.20
2018-03-01T14:36:48.896Z,25.00
2018-03-01T14:39:17.125Z,25.10
2018-03-01T14:41:45.422Z,25.20
2018-03-01T14:44:13.682Z,25.10
2018-03-01T14:46:41.947Z,25.20
2018-03-01T14:49:10.190Z,25.00
2018-03-01T14:51:39.220Z,24.90
2018-03-01T14:54:07.567Z,24.90
2018-03-01T14:56:35.856Z,25.10
2018-03-01T14:59:05.012Z,24.90
2018-03-01T15:01:34.866Z,24.90
2018-03-01T15:04:03.127Z,24.90
2018-03-01T15:06:31.509Z,24.90
2018-03-01T15:08:59.758Z,24.60
2018-03-01T15:11:28.010Z,24.70
2018-03-01T15:13:56.254Z,24.70
2018-03-01T15:16:24.538Z,24.80
2018-03-01T15:18:52.800Z,24.80
2018-03-01T15:21:21.081Z,24.50
2018-03-01T15:23:49.334Z,24.70
2018-03-01T15:26:18.437Z,25.10
2018-03-01T15:28:46.702Z,24.90
2018-03-01T15:31:15.785Z,24.90
2018-03-01T15:33:44.229Z,24.90
2018-03-01T15:36:12.763Z,24.60
2018-03-01T15:38:41.874Z,24.70
2018-03-01T15:41:10.233Z,24.60
2018-03-01T15:43:38.515Z,24.80
2018-03-01T15:46:07.590Z,24.70
2018-03-01T15:48:35.868Z,24.70
2018-03-01T15:51:04.293Z,24.90
2018-03-01T15:53:32.534Z,24.90
2018-03-01T15:56:02.703Z,24.90
2018-03-01T15:58:30.933Z,24.90
2018-03-01T16:01:00.117Z,24.80
2018-03-01T16:03:28.375Z,24.80
2018-03-01T16:05:56.717Z,24.90
2018-03-01T16:08:24.966Z,24.90
2018-03-01T16:10:53.258Z,24.90
2018-03-01T16:13:21.500Z,24.80
2018-03-01T16:15:49.901Z,24.80
2018-03-01T16:18:18.944Z,25.00
2018-03-01T16:20:47.307Z,25.00
2018-03-01T16:23:22.839Z,24.90
2018-03-01T16:25:51.086Z,25.00
2018-03-01T16:28:19.315Z,24.90
2018-03-01T16:30:48.446Z,25.00
2018-03-01T16:33:16.734Z,25.10
2018-03-01T16:35:45.000Z,25.10
2018-03-01T16:38:13.251Z,25.10
2018-03-01T16:40:42.212Z,25.00
2018-03-01T16:43:10.646Z,25.10
2018-03-01T16:45:39.290Z,25.00
2018-03-01T16:48:07.586Z,25.00
2018-03-01T16:50:35.833Z,25.10
2018-03-01T16:53:04.230Z,25.00
2018-03-01T16:55:32.579Z,25.00
2018-03-01T16:58:00.907Z,25.00
2018-03-01T17:00:29.149Z,25.10
2018-03-01T17:02:57.390Z,25.20
2018-03-01T17:05:25.736Z,25.10
2018-03-01T17:07:53.993Z,24.90
2018-03-01T17:10:22.244Z,25.00
2018-03-01T17:12:50.545Z,25.20
2018-03-01T17:15:18.794Z,25.20
2018-03-01T17:17:47.655Z,24.90
2018-03-01T17:20:16.668Z,25.00
2018-03-01T17:22:45.528Z,25.10
2018-03-01T17:25:13.784Z,25.20
2018-03-01T17:27:42.038Z,25.20
2018-03-01T17:30:10.311Z,25.10
2018-03-01T17:32:38.576Z,25.10
2018-03-01T17:35:06.805Z,25.10
2018-03-01T17:37:36.426Z,25.00
2018-03-01T17:40:05.619Z,25.30
2018-03-01T17:42:34.640Z,25.30
2018-03-01T17:45:03.000Z,25.10
2018-03-01T17:47:32.009Z,25.10
2018-03-01T17:50:00.654Z,25.20
2018-03-01T17:52:28.902Z,25.20
2018-03-01T17:54:57.173Z,25.20
2018-03-01T17:57:25.398Z,25.10
2018-03-01T17:59:54.510Z,25.40
2018-03-01T18:02:22.822Z,25.30
2018-03-01T18:04:51.131Z,25.30
2018-03-01T18:07:19.337Z,25.30
2018-03-01T18:09:47.639Z,25.40
2018-03-01T18:12:15.894Z,25.40
2018-03-01T18:14:44.173Z,25.40
2018-03-01T18:17:13.102Z,25.70
2018-03-01T18:19:42.087Z,25.60
2018-03-01T18:22:10.706Z,25.60
2018-03-01T18:24:41.109Z,25.60
2018-03-01T18:27:10.183Z,25.60
2018-03-01T18:29:38.419Z,25.70
2018-03-01T18:32:07.419Z,26.40
2018-03-01T18:34:35.688Z,25.70
2018-03-01T18:37:03.924Z,25.90
2018-03-01T18:39:32.273Z,26.00
2018-03-01T18:42:00.623Z,26.00
2018-03-01T18:44:29.725Z,26.00
2018-03-01T18:46:58.165Z,25.90
2018-03-01T18:49:26.434Z,25.90
2018-03-01T18:51:54.709Z,26.00
2018-03-01T18:54:23.109Z,26.00
2018-03-01T18:56:51.353Z,26.10
2018-03-01T18:59:19.606Z,26.10
2018-03-01T19:01:48.100Z,25.30
2018-03-01T19:04:16.397Z,26.20
2018-03-01T19:06:44.716Z,26.20
2018-03-01T19:09:13.849Z,26.20
2018-03-01T19:11:42.387Z,26.40
2018-03-01T19:14:10.693Z,26.50
2018-03-01T19:16:38.938Z,26.30
2018-03-01T19:19:08.753Z,26.30
2018-03-01T19:21:37.045Z,26.50
2018-03-01T19:24:05.393Z,26.60
2018-03-01T19:26:34.401Z,26.60
2018-03-01T19:29:02.705Z,26.50
2018-03-01T19:31:30.950Z,26.50
2018-03-01T19:33:59.208Z,26.40
2018-03-01T19:36:27.518Z,26.50
2018-03-01T19:38:55.738Z,26.70
2018-03-01T19:41:24.090Z,26.80
2018-03-01T19:43:52.498Z,26.70
2018-03-01T19:46:20.754Z,26.80
2018-03-01T19:48:49.098Z,26.80
2018-03-01T19:51:18.114Z,26.80
2018-03-01T19:53:46.410Z,26.90
2018-03-01T19:56:14.877Z,26.20
2018-03-01T19:58:43.095Z,26.90
2018-03-01T20:01:11.378Z,26.90
2018-03-01T20:03:41.124Z,26.90
2018-03-01T20:06:09.388Z,26.90
2018-03-01T20:08:37.659Z,26.90
2018-03-01T20:11:06.686Z,27.00
2018-03-01T20:13:35.029Z,27.00
2018-03-01T20:16:03.291Z,27.60
2018-03-01T20:18:31.544Z,26.40
2018-03-01T20:20:59.899Z,26.40
2018-03-01T20:23:28.387Z,27.00
2018-03-01T20:25:56.648Z,27.10
2018-03-01T20:28:24.930Z,27.20
2018-03-01T20:30:53.252Z,27.30
2018-03-01T20:33:21.491Z,27.20
2018-03-01T20:35:49.848Z,27.30
2018-03-01T20:38:18.192Z,27.50
2018-03-01T20:40:47.345Z,27.30
2018-03-01T20:43:15.659Z,27.30
2018-03-01T20:45:43.897Z,27.40
2018-03-01T20:48:12.214Z,27.40
2018-03-01T20:50:41.253Z,27.20
2018-03-01T20:53:09.680Z,27.20
2018-03-01T20:55:37.918Z,27.40
2018-03-01T20:58:06.188Z,27.30
2018-03-01T21:00:34.502Z,27.30
2018-03-01T21:03:02.780Z,27.50
2018-03-01T21:05:31.233Z,27.40
2018-03-01T21:07:59.575Z,27.40
2018-03-01T21:10:28.597Z,27.30
2018-03-01T21:12:56.960Z,27.50
2018-03-01T21:15:25.305Z,27.30
2018-03-01T21:17:53.577Z,27.40
2018-03-01T21:20:22.037Z,27.50
2018-03-01T21:22:50.476Z,26.70
2018-03-01T21:25:18.752Z,27.50
2018-03-01T21:27:47.104Z,27.30
2018-03-01T21:30:15.435Z,27.40
2018-03-01T21:32:43.776Z,26.80
2018-03-01T21:35:12.022Z,27.80
2018-03-01T21:37:40.314Z,27.50
2018-03-01T21:40:08.589Z,27.60
2018-03-01T21:42:36.846Z,27.70
2018-03-01T21:45:05.105Z,27.50
2018-03-01T21:47:33.358Z,27.70
2018-03-01T21:50:01.652Z,27.80
2018-03-01T21:52:29.901Z,27.60
2018-03-01T21:54:58.251Z,27.70
2018-03-01T21:57:26.746Z,27.70
2018-03-01T21:59:55.003Z,27.80
2018-03-01T22:02:24.745Z,28.00
2018-03-01T22:04:53.080Z,27.80
2018-03-01T22:07:22.909Z,27.80
2018-03-01T22:09:51.222Z,27.80
2018-03-01T22:12:19.489Z,27.90
2018-03-01T22:14:47.753Z,27.80
2018-03-01T22:17:16.049Z,27.80
2018-03-01T22:19:44.374Z,27.80
2018-03-01T22:22:12.692Z,27.70
2018-03-01T22:24:40.966Z,28.00
2018-03-01T22:27:09.341Z,27.80
2018-03-01T22:29:37.623Z,27.80
2018-03-01T22:32:06.121Z,27.90
2018-03-01T22:34:34.382Z,28.20
2018-03-01T22:37:02.644Z,28.30
2018-03-01T22:39:32.592Z,28.30
2018-03-01T22:42:01.419Z,28.30
2018-03-01T22:44:31.167Z,28.30
2018-03-01T22:46:59.414Z,27.90
2018-03-01T22:49:28.548Z,28.20
2018-03-01T22:51:56.794Z,28.10
2018-03-01T22:54:25.890Z,28.20
2018-03-01T22:56:54.197Z,28.00
2018-03-01T22:59:22.479Z,28.20
2018-03-01T23:01:51.553Z,28.40
2018-03-01T23:04:20.052Z,28.30
2018-03-01T23:06:48.323Z,28.40
2018-03-01T23:09:16.577Z,28.30
2018-03-01T23:11:44.859Z,28.60
2018-03-01T23:14:13.204Z,28.40
2018-03-01T23:16:41.494Z,28.30
2018-03-01T23:19:10.542Z,28.60
2018-03-01T23:21:38.804Z,28.30
2018-03-01T23:24:07.077Z,28.30
2018-03-01T23:26:35.361Z,28.30
2018-03-01T23:29:03.602Z,28.40
2018-03-01T23:31:31.861Z,28.50
2018-03-01T23:34:00.162Z,28.50
2018-03-01T23:36:28.423Z,28.60
2018-03-01T23:38:56.759Z,27.80
2018-03-01T23:41:25.074Z,28.50
2018-03-01T23:43:53.321Z,28.80
2018-03-01T23:46:23.193Z,28.70
2018-03-01T23:48:51.461Z,28.80
2018-03-01T23:51:19.766Z,28.60
2018-03-01T23:53:48.065Z,28.80
2018-03-01T23:56:16.345Z,28.70
2018-03-01T23:58:44.616Z,29.00
